createdAt,value
2023-04-06T00:00:12.523Z,60
2023-04-06T00:15:14.303Z,60
2023-04-06T00:30:16.096Z,50
2023-04-06T00:45:17.907Z,30
2023-04-06T01:00:19.627Z,30
2023-04-06T01:15:21.484Z,20
2023-04-06T01:30:23.334Z,20
2023-04-06T01:45:25.050Z,10
2023-04-06T02:00:26.797Z,0
2023-04-06T02:15:28.550Z,0
2023-04-06T02:30:30.364Z,0
2023-04-06T02:45:32.137Z,0
2023-04-06T03:00:33.939Z,0
2023-04-06T03:15:35.746Z,0
2023-04-06T03:30:37.541Z,0
2023-04-06T03:45:39.269Z,0
2023-04-06T04:00:40.957Z,0
2023-04-06T04:15:42.694Z,0
2023-04-06T04:30:44.458Z,0
2023-04-06T04:45:46.252Z,0
2023-04-06T05:00:48.015Z,0
2023-04-06T05:15:49.811Z,0
2023-04-06T05:30:51.804Z,0
2023-04-06T05:45:53.581Z,0
2023-04-06T06:00:56.464Z,0
2023-04-06T06:15:58.307Z,0
2023-04-06T06:31:00.133Z,0
2023-04-06T06:46:01.967Z,0
2023-04-06T07:01:03.846Z,0
2023-04-06T07:16:05.862Z,0
2023-04-06T07:31:07.642Z,0
2023-04-06T07:46:09.514Z,0
2023-04-06T08:01:11.321Z,0
2023-04-06T08:16:13.186Z,0
2023-04-06T08:31:15.025Z,0
2023-04-06T08:46:16.907Z,0
2023-04-06T09:01:18.724Z,0
2023-04-06T09:16:20.524Z,0
2023-04-06T09:31:22.551Z,0
2023-04-06T09:46:24.380Z,0
2023-04-06T10:01:26.215Z,0
2023-04-06T10:16:28.030Z,0
2023-04-06T10:31:29.898Z,0
2023-04-06T10:46:31.692Z,0
2023-04-06T11:01:33.597Z,0
2023-04-06T11:16:35.462Z,0
2023-04-06T11:31:37.392Z,0
2023-04-06T11:46:39.183Z,0
2023-04-06T12:01:41.010Z,0
2023-04-06T12:16:42.788Z,0
2023-04-06T12:31:44.648Z,0
2023-04-06T12:46:46.415Z,0
2023-04-06T13:01:48.282Z,0
2023-04-06T13:16:50.144Z,0
2023-04-06T13:31:51.949Z,0
2023-04-06T13:46:53.727Z,0
2023-04-06T14:01:55.530Z,10
2023-04-06T14:16:57.418Z,10
2023-04-06T14:31:59.269Z,20
2023-04-06T14:47:01.021Z,10
2023-04-06T15:02:02.881Z,20
2023-04-06T15:17:04.719Z,30
2023-04-06T15:32:06.748Z,40
2023-04-06T15:47:08.495Z,50
2023-04-06T16:02:10.300Z,50
2023-04-06T16:17:12.048Z,40
2023-04-06T16:32:13.811Z,40
2023-04-06T16:47:15.614Z,50
2023-04-06T17:02:17.508Z,50
2023-04-06T17:17:19.517Z,50
2023-04-06T17:32:21.259Z,50
2023-04-06T17:47:23.140Z,70
2023-04-06T18:02:25.045Z,60
2023-04-06T18:17:27.063Z,70
2023-04-06T18:32:28.849Z,80
2023-04-06T18:47:30.641Z,70
2023-04-06T19:02:32.537Z,50
2023-04-06T19:17:34.456Z,50
2023-04-06T19:32:36.284Z,50
2023-04-06T19:47:38.188Z,70
2023-04-06T20:02:40.006Z,70
2023-04-06T20:17:42.004Z,90
2023-04-06T20:32:43.890Z,90
2023-04-06T20:47:45.777Z,90
2023-04-06T21:02:47.698Z,90
2023-04-06T21:17:49.683Z,80
2023-04-06T21:32:51.710Z,130
2023-04-06T21:47:53.578Z,150
2023-04-06T22:02:55.843Z,100
2023-04-06T22:17:57.934Z,110
2023-04-06T22:32:59.811Z,40
2023-04-06T22:48:01.568Z,50
2023-04-06T23:03:03.499Z,60
2023-04-06T23:18:05.561Z,60
2023-04-06T23:33:07.426Z,70
2023-04-06T23:48:09.213Z,50
